Time;durP1;ratioP1;P1;durP2;ratioP2;P2;SDS_P1;SDS_P2;PMS_P1;PMS_P2;Temp;Humidity;BMP_temperature;BMP_pressure;BME280_temperature;BME280_humidity;BME280_pressure;Samples;Min_cycle;Max_cycle;Signal;HPM_P1;HPM_P2
2022/01/13 00:01:57;;;;;;;17.83;6.07;;;17.90;54.50;;;;;;4984872;28;20105;-68
2022/01/13 00:04:23;;;;;;;9.95;5.75;;;17.90;54.50;;;;;;4979668;28;20046;-67
2022/01/13 00:06:48;;;;;;;11.25;6.15;;;17.90;54.50;;;;;;4974645;28;20031;-65
2022/01/13 00:09:14;;;;;;;9.80;6.22;;;17.90;54.40;;;;;;4986168;28;20034;-68
2022/01/13 00:11:40;;;;;;;10.48;5.93;;;17.90;54.30;;;;;;4978939;28;20038;-69
2022/01/13 00:14:24;;;;;;;9.40;5.47;;;18.00;54.20;;;;;;4968579;28;20041;-68
2022/01/13 00:19:34;;;;;;;12.43;5.50;;;18.00;54.00;;;;;;4983993;28;20053;-68
2022/01/13 00:22:14;;;;;;;9.57;5.32;;;18.00;54.00;;;;;;4976497;28;20038;-68
2022/01/13 00:24:42;;;;;;;9.15;5.20;;;18.00;53.90;;;;;;4979732;28;20034;-68
2022/01/13 00:27:11;;;;;;;10.18;5.05;;;18.00;53.80;;;;;;4975604;28;20031;-68
2022/01/13 00:29:40;;;;;;;8.63;4.93;;;18.00;53.60;;;;;;4971422;28;20452;-67
2022/01/13 00:32:06;;;;;;;7.88;5.15;;;18.00;53.60;;;;;;4974560;28;20546;-67
2022/01/13 00:34:32;;;;;;;9.65;4.55;;;18.00;53.60;;;;;;4970814;28;20147;-68
2022/01/13 00:36:58;;;;;;;8.80;4.72;;;18.00;53.50;;;;;;4966839;28;20059;-68
2022/01/13 00:39:23;;;;;;;8.45;4.50;;;18.00;53.40;;;;;;4970335;28;20093;-68
2022/01/13 00:41:49;;;;;;;9.10;4.68;;;18.00;53.40;;;;;;4975714;28;20026;-63
2022/01/13 00:44:19;;;;;;;6.57;4.28;;;18.10;53.40;;;;;;4974599;28;20030;-68
2022/01/13 00:46:47;;;;;;;6.55;4.40;;;18.10;53.30;;;;;;4975636;28;20039;-68
2022/01/13 00:49:13;;;;;;;7.07;3.90;;;18.00;53.40;;;;;;4967115;28;20094;-68
2022/01/13 00:51:38;;;;;;;7.57;4.00;;;18.00;53.70;;;;;;4965445;28;20062;-68
2022/01/13 00:54:06;;;;;;;7.40;4.13;;;17.90;53.90;;;;;;4969641;28;20068;-69
2022/01/13 00:56:32;;;;;;;4.95;4.10;;;17.90;54.00;;;;;;4966185;28;20054;-67
2022/01/13 00:58:59;;;;;;;5.10;4.30;;;17.90;54.20;;;;;;4973340;28;20069;-67
2022/01/13 01:01:24;;;;;;;6.57;3.40;;;17.90;54.20;;;;;;4972427;28;20093;-68
2022/01/13 01:03:50;;;;;;;6.05;3.40;;;17.90;54.20;;;;;;4971925;28;20042;-67
2022/01/13 01:06:15;;;;;;;5.40;3.40;;;17.90;54.20;;;;;;4972425;28;20131;-67
2022/01/13 01:08:42;;;;;;;5.28;3.30;;;17.90;54.20;;;;;;4974531;28;20535;-68
2022/01/13 01:11:07;;;;;;;5.65;3.30;;;17.90;54.30;;;;;;4966952;28;20034;-68
2022/01/13 01:13:35;;;;;;;5.22;3.13;;;17.90;54.20;;;;;;4978208;28;20046;-68
2022/01/13 01:16:07;;;;;;;7.53;3.50;;;17.90;54.20;;;;;;4985497;28;20049;-67
2022/01/13 01:18:41;;;;;;;4.28;3.00;;;17.90;54.20;;;;;;4972183;28;20023;-63
2022/01/13 01:23:38;;;;;;;6.20;3.30;;;17.90;54.00;;;;;;4971921;28;20094;-68
2022/01/13 01:26:18;;;;;;;5.15;2.72;;;17.90;53.90;;;;;;4982181;28;20041;-69
2022/01/13 01:28:48;;;;;;;5.18;2.60;;;17.90;53.80;;;;;;4962086;28;20045;-69
2022/01/13 01:31:14;;;;;;;5.90;3.38;;;18.00;53.70;;;;;;4976921;28;20188;-68
2022/01/13 01:33:47;;;;;;;4.28;2.55;;;17.90;53.80;;;;;;4982060;28;20599;-68
2022/01/13 01:36:13;;;;;;;4.90;2.47;;;17.90;54.00;;;;;;4974644;28;20038;-68
2022/01/13 01:38:42;;;;;;;7.35;3.13;;;17.90;54.10;;;;;;4981038;28;20695;-68
2022/01/13 01:41:07;;;;;;;5.60;2.60;;;17.90;54.10;;;;;;4971282;28;20093;-68
2022/01/13 01:43:33;;;;;;;4.88;2.45;;;17.90;54.10;;;;;;4973334;28;21403;-68
2022/01/13 01:45:59;;;;;;;4.03;2.67;;;17.90;54.10;;;;;;4977321;28;20042;-68
2022/01/13 01:48:26;;;;;;;4.60;2.72;;;17.90;54.10;;;;;;4967114;28;20030;-68
2022/01/13 01:50:58;;;;;;;3.15;2.13;;;17.90;54.10;;;;;;4984687;28;20046;-68
2022/01/13 01:53:24;;;;;;;3.85;2.00;;;17.90;54.10;;;;;;4975375;28;20033;-68
2022/01/13 01:55:49;;;;;;;3.55;2.30;;;17.90;54.10;;;;;;4985423;28;20034;-68
2022/01/13 01:58:15;;;;;;;3.85;2.33;;;17.90;54.00;;;;;;4957847;28;20029;-68
2022/01/13 02:00:40;;;;;;;2.70;2.30;;;17.90;53.90;;;;;;4975482;28;20090;-68
2022/01/13 02:03:06;;;;;;;3.60;1.77;;;17.90;53.80;;;;;;4967102;28;20029;-68
2022/01/13 02:05:31;;;;;;;3.25;2.30;;;17.90;53.70;;;;;;4974307;28;20026;-67
2022/01/13 02:07:57;;;;;;;2.22;1.70;;;17.90;53.60;;;;;;4978720;28;20031;-68
2022/01/13 02:10:22;;;;;;;4.72;2.40;;;18.00;53.60;;;;;;4984267;28;20030;-68
2022/01/13 02:12:51;;;;;;;3.22;2.25;;;18.00;53.60;;;;;;4984804;28;20027;-68
2022/01/13 02:15:30;;;;;;;3.55;2.17;;;18.00;53.50;;;;;;4986985;28;20377;-68
2022/01/13 02:17:55;;;;;;;3.85;1.92;;;18.00;53.40;;;;;;4974189;28;20103;-68
2022/01/13 02:20:21;;;;;;;4.65;2.05;;;18.00;53.40;;;;;;4977299;28;20566;-64
2022/01/13 02:22:46;;;;;;;3.55;2.42;;;18.00;53.30;;;;;;4979593;28;20046;-68
2022/01/13 02:25:15;;;;;;;2.80;2.03;;;18.00;53.30;;;;;;4969037;28;20417;-68
2022/01/13 02:27:41;;;;;;;4.30;1.90;;;18.00;53.20;;;;;;4969807;28;20030;-68
2022/01/13 02:30:07;;;;;;;4.25;1.88;;;17.90;53.10;;;;;;4986547;28;20035;-63
2022/01/13 02:32:32;;;;;;;3.53;2.03;;;17.90;53.20;;;;;;4985146;28;20430;-68
2022/01/13 02:34:58;;;;;;;3.13;1.92;;;17.90;53.10;;;;;;4965439;28;20066;-68
2022/01/13 02:37:23;;;;;;;3.20;2.42;;;17.90;53.10;;;;;;4977033;28;20034;-68
2022/01/13 02:39:49;;;;;;;3.28;1.70;;;17.90;53.00;;;;;;4972145;28;20038;-68
2022/01/13 02:42:14;;;;;;;2.80;1.85;;;17.90;53.00;;;;;;4976105;28;20031;-67
2022/01/13 02:45:01;;;;;;;3.70;2.10;;;17.90;53.00;;;;;;4978646;28;20045;-68
2022/01/13 02:47:37;;;;;;;2.83;1.85;;;17.90;53.00;;;;;;4976452;28;20037;-68
2022/01/13 02:50:03;;;;;;;3.72;1.90;;;17.80;52.90;;;;;;4958819;28;20039;-67
2022/01/13 02:52:29;;;;;;;3.88;1.65;;;17.80;53.00;;;;;;4982526;28;20448;-67
2022/01/13 02:54:54;;;;;;;2.72;1.63;;;17.80;53.00;;;;;;4979284;28;20038;-66
2022/01/13 02:57:20;;;;;;;2.38;1.80;;;17.80;52.90;;;;;;4976367;28;20033;-68
2022/01/13 02:59:45;;;;;;;1.85;1.33;;;17.80;53.00;;;;;;4972077;28;20022;-68
2022/01/13 03:02:11;;;;;;;2.78;1.70;;;17.80;53.00;;;;;;4968086;28;20031;-68
2022/01/13 03:04:36;;;;;;;2.00;1.52;;;17.70;53.00;;;;;;4962454;28;20031;-68
2022/01/13 03:07:03;;;;;;;2.38;1.55;;;17.70;53.00;;;;;;4982030;28;20038;-68
2022/01/13 03:09:29;;;;;;;1.85;1.33;;;17.70;53.00;;;;;;4975871;28;20134;-68
2022/01/13 03:11:54;;;;;;;2.55;1.55;;;17.70;53.00;;;;;;4968873;28;20421;-69
2022/01/13 03:14:20;;;;;;;1.58;1.48;;;17.70;53.10;;;;;;4959571;28;20027;-69
2022/01/13 03:16:45;;;;;;;2.33;1.40;;;17.70;53.00;;;;;;4976710;28;20023;-70
2022/01/13 03:19:11;;;;;;;2.67;1.52;;;17.60;53.00;;;;;;4975638;28;20046;-68
2022/01/13 03:21:37;;;;;;;1.88;1.60;;;17.60;53.00;;;;;;4979728;28;20405;-69
2022/01/13 03:24:06;;;;;;;2.30;1.48;;;17.60;53.00;;;;;;4975184;28;20509;-69
2022/01/13 03:26:32;;;;;;;2.08;1.60;;;17.60;53.00;;;;;;4978457;28;20053;-64
2022/01/13 03:29:05;;;;;;;2.55;1.35;;;17.60;53.00;;;;;;4979537;28;20093;-68
2022/01/13 03:31:30;;;;;;;3.85;1.40;;;17.50;53.00;;;;;;4969214;28;20046;-66
2022/01/13 03:33:56;;;;;;;2.53;1.42;;;17.50;53.10;;;;;;4977505;28;20035;-69
2022/01/13 03:36:21;;;;;;;2.92;1.30;;;17.50;53.10;;;;;;4981437;28;20034;-69
2022/01/13 03:38:47;;;;;;;1.85;1.15;;;17.50;53.70;;;;;;4969398;28;20042;-65
2022/01/13 03:41:13;;;;;;;2.67;1.20;;;17.50;53.10;;;;;;4976732;28;20525;-67
2022/01/13 03:43:38;;;;;;;3.15;1.30;;;17.50;53.30;;;;;;4979453;28;20042;-67
2022/01/13 03:46:04;;;;;;;2.10;1.25;;;17.50;53.30;;;;;;4983293;28;20035;-69
2022/01/13 03:48:30;;;;;;;3.40;1.73;;;17.60;53.50;;;;;;4970653;28;20038;-68
2022/01/13 03:50:55;;;;;;;1.73;1.10;;;17.60;53.50;;;;;;4972139;28;20043;-69
2022/01/13 03:53:27;;;;;;;1.48;1.17;;;17.60;53.50;;;;;;4977895;28;20033;-69
2022/01/13 03:56:42;;;;;;;1.73;0.98;;;17.60;53.50;;;;;;4979575;28;20390;-69
2022/01/13 03:59:32;;;;;;;2.22;1.23;;;17.60;53.40;;;;;;4984045;28;20726;-69
2022/01/13 04:02:05;;;;;;;1.30;1.00;;;17.70;53.50;;;;;;4974108;28;20468;-68
2022/01/13 04:04:34;;;;;;;3.03;1.30;;;17.70;53.40;;;;;;4977960;28;20490;-68
2022/01/13 04:07:17;;;;;;;1.27;1.05;;;17.70;53.30;;;;;;4981599;28;20038;-69
2022/01/13 04:09:43;;;;;;;1.60;1.30;;;17.70;53.30;;;;;;4969070;28;20042;-68
2022/01/13 04:12:10;;;;;;;1.15;0.90;;;17.80;53.30;;;;;;4972990;28;20031;-69
2022/01/13 04:14:46;;;;;;;1.67;1.08;;;17.80;53.30;;;;;;4972425;28;20042;-68
2022/01/13 04:17:15;;;;;;;;;;;17.90;53.30;;;;;;4977235;28;20037;-68
2022/01/13 04:19:40;;;;;;;2.95;1.25;;;17.90;53.40;;;;;;4965981;28;20353;-68
2022/01/13 04:22:06;;;;;;;1.75;1.00;;;17.90;53.30;;;;;;4976561;28;20039;-67
2022/01/13 04:24:32;;;;;;;2.17;1.02;;;17.90;53.30;;;;;;4981427;28;20680;-68
2022/01/13 04:26:58;;;;;;;1.52;1.02;;;17.90;53.20;;;;;;4978807;28;20039;-69
2022/01/13 04:31:57;;;;;;;1.45;1.30;;;18.00;53.30;;;;;;4970774;28;20038;-64
2022/01/13 04:34:23;;;;;;;1.35;1.08;;;18.00;53.20;;;;;;4979261;28;20034;-67
2022/01/13 04:36:49;;;;;;;1.77;1.00;;;18.00;53.20;;;;;;4974138;28;20137;-68
2022/01/13 04:39:14;;;;;;;0.93;0.80;;;18.00;53.10;;;;;;4970387;28;20091;-67
2022/01/13 04:41:43;;;;;;;1.00;0.90;;;18.00;53.10;;;;;;4978167;28;20050;-68
2022/01/13 04:44:10;;;;;;;1.92;1.05;;;18.00;53.00;;;;;;4972558;28;20059;-69
2022/01/13 04:46:36;;;;;;;1.20;1.10;;;18.00;53.00;;;;;;4976137;28;20088;-69
2022/01/13 04:49:02;;;;;;;1.80;1.02;;;18.00;52.90;;;;;;4968584;28;20027;-68
2022/01/13 04:51:28;;;;;;;6.05;1.25;;;18.00;52.90;;;;;;4971419;28;20445;-68
2022/01/13 04:53:53;;;;;;;1.27;1.00;;;18.00;52.80;;;;;;4977312;28;20038;-68
2022/01/13 04:56:31;;;;;;;1.33;1.10;;;18.00;52.80;;;;;;4989683;28;20068;-68
2022/01/13 04:58:56;;;;;;;2.38;1.00;;;18.00;52.80;;;;;;4981612;28;20070;-65
2022/01/13 05:01:22;;;;;;;2.53;1.15;;;18.00;52.80;;;;;;4988586;28;20034;-68
2022/01/13 05:03:47;;;;;;;1.60;0.88;;;18.00;52.80;;;;;;4981418;28;20034;-69
2022/01/13 05:06:13;;;;;;;1.40;1.20;;;18.00;52.80;;;;;;4978057;28;20035;-68
2022/01/13 05:08:39;;;;;;;1.58;1.02;;;18.00;52.90;;;;;;4975209;28;20516;-68
2022/01/13 05:11:05;;;;;;;1.48;1.20;;;18.00;52.90;;;;;;4972049;28;20481;-66
2022/01/13 05:13:30;;;;;;;1.90;1.20;;;18.00;52.90;;;;;;4980758;28;20042;-66
2022/01/13 05:15:56;;;;;;;1.48;1.10;;;18.00;52.90;;;;;;4979070;28;20396;-64
2022/01/13 05:18:46;;;;;;;1.40;1.30;;;18.00;52.90;;;;;;4974312;28;20085;-65
2022/01/13 05:21:26;;;;;;;1.75;1.10;;;18.00;52.90;;;;;;4977407;28;20327;-63
2022/01/13 05:23:52;;;;;;;1.33;1.10;;;18.00;53.00;;;;;;4966812;28;20034;-62
2022/01/13 05:26:22;;;;;;;7.63;3.55;;;18.10;53.10;;;;;;4986136;28;20026;-67
2022/01/13 05:28:47;;;;;;;14.75;7.20;;;18.00;53.10;;;;;;4985467;28;20041;-63
2022/01/13 05:31:13;;;;;;;22.05;9.68;;;18.00;53.10;;;;;;4969837;28;20062;-63
2022/01/13 05:33:38;;;;;;;24.42;11.25;;;18.00;53.20;;;;;;4977771;28;20102;-67
2022/01/13 05:36:05;;;;;;;25.35;12.68;;;18.00;53.20;;;;;;4976009;28;20031;-66
2022/01/13 05:38:30;;;;;;;28.38;14.32;;;18.00;53.30;;;;;;4973308;28;20031;-63
2022/01/13 05:40:58;;;;;;;30.38;14.77;;;18.00;53.40;;;;;;4949732;28;20515;-63
2022/01/13 05:43:24;;;;;;;30.05;14.45;;;18.00;53.70;;;;;;4975964;28;20025;-67
2022/01/13 05:45:49;;;;;;;24.42;13.30;;;18.00;53.90;;;;;;4975720;28;20026;-68
2022/01/13 05:48:14;;;;;;;25.63;13.55;;;18.00;54.10;;;;;;4973151;28;20035;-67
2022/01/13 05:50:40;;;;;;;27.38;13.00;;;18.00;54.00;;;;;;4970835;28;20105;-68
2022/01/13 05:53:06;;;;;;;22.88;12.55;;;18.00;53.90;;;;;;4981601;28;20452;-69
2022/01/13 05:55:31;;;;;;;29.65;12.35;;;18.00;53.80;;;;;;4974231;28;20121;-68
2022/01/13 05:57:57;;;;;;;25.55;12.00;;;18.00;53.70;;;;;;4961916;28;20058;-70
2022/01/13 06:00:23;;;;;;;22.58;11.00;;;18.00;53.60;;;;;;4966828;28;20118;-67
2022/01/13 06:02:48;;;;;;;22.90;11.65;;;18.00;53.40;;;;;;4982319;28;20069;-67
2022/01/13 06:05:14;;;;;;;20.70;10.13;;;18.00;53.30;;;;;;4980181;28;20027;-68
2022/01/13 06:07:39;;;;;;;20.95;11.25;;;18.00;53.60;;;;;;4978189;28;20081;-67
2022/01/13 06:10:07;;;;;;;19.30;10.13;;;18.00;53.80;;;;;;4977813;28;20066;-65
2022/01/13 06:12:34;;;;;;;19.17;8.98;;;18.00;53.90;;;;;;4971769;28;20035;-62
2022/01/13 06:15:10;;;;;;;22.02;10.27;;;18.00;54.00;;;;;;4981321;28;20037;-64
2022/01/13 06:17:36;;;;;;;18.13;8.82;;;18.00;54.00;;;;;;4988296;28;20118;-69
2022/01/13 06:20:04;;;;;;;16.90;9.38;;;17.90;53.90;;;;;;4971238;28;20129;-68
2022/01/13 06:22:29;;;;;;;29.92;14.73;;;18.00;53.80;;;;;;4976484;28;20469;-65
2022/01/13 06:24:54;;;;;;;52.95;25.17;;;18.00;53.90;;;;;;4972548;28;20082;-66
2022/01/13 06:27:21;;;;;;;56.25;25.77;;;18.00;54.00;;;;;;4971780;28;20109;-65
2022/01/13 06:29:47;;;;;;;44.17;23.00;;;18.00;54.00;;;;;;4967673;28;20122;-68
2022/01/13 06:32:13;;;;;;;56.03;23.92;;;18.00;53.90;;;;;;4974466;28;20098;-69
2022/01/13 06:34:38;;;;;;;53.13;26.40;;;18.00;53.90;;;;;;4987399;28;20027;-68
2022/01/13 06:37:03;;;;;;;42.85;22.20;;;17.90;53.80;;;;;;4985091;28;20043;-69
2022/01/13 06:39:29;;;;;;;42.88;21.20;;;18.00;53.90;;;;;;4977149;28;20086;-64
2022/01/13 06:41:54;;;;;;;40.60;20.20;;;17.90;54.00;;;;;;4980527;28;20038;-65
2022/01/13 06:44:20;;;;;;;36.83;19.17;;;17.90;54.10;;;;;;4971558;28;20034;-67
2022/01/13 06:46:45;;;;;;;35.33;18.42;;;17.90;54.10;;;;;;4977788;28;20278;-65
2022/01/13 06:49:11;;;;;;;34.05;18.10;;;17.90;54.30;;;;;;4983571;28;20062;-65
2022/01/13 06:51:37;;;;;;;32.25;16.45;;;17.80;54.10;;;;;;4967651;28;20124;-65
2022/01/13 06:54:03;;;;;;;31.08;16.52;;;17.80;54.10;;;;;;4971208;28;20031;-65
2022/01/13 06:56:29;;;;;;;32.17;15.88;;;17.80;54.10;;;;;;4978537;28;20034;-65
2022/01/13 06:58:55;;;;;;;27.08;14.50;;;17.80;54.10;;;;;;4951818;28;20077;-68
2022/01/13 07:01:22;;;;;;;28.25;14.30;;;17.80;54.10;;;;;;4981698;28;20026;-68
2022/01/13 07:03:48;;;;;;;28.58;14.90;;;17.80;54.10;;;;;;4975207;28;20038;-65
2022/01/13 07:06:13;;;;;;;29.08;14.20;;;17.80;54.10;;;;;;4976363;28;20085;-65
2022/01/13 07:08:39;;;;;;;26.77;13.50;;;17.70;54.10;;;;;;4975483;28;20074;-68
2022/01/13 07:11:04;;;;;;;27.27;12.77;;;17.80;54.10;;;;;;4968180;28;20038;-68
2022/01/13 07:13:30;;;;;;;21.88;11.65;;;17.70;54.10;;;;;;4981216;28;20030;-67
2022/01/13 07:15:58;;;;;;;23.55;12.32;;;17.70;54.10;;;;;;4982017;28;20446;-65
2022/01/13 07:18:23;;;;;;;24.05;11.27;;;17.70;54.00;;;;;;4978639;28;20548;-65
2022/01/13 07:20:49;;;;;;;23.60;10.63;;;17.70;53.80;;;;;;4971186;28;20042;-68
2022/01/13 07:23:14;;;;;;;18.52;11.15;;;17.70;53.50;;;;;;4967315;28;20439;-67
2022/01/13 07:25:40;;;;;;;18.02;9.43;;;17.60;54.00;;;;;;4982181;28;20030;-64
2022/01/13 07:28:05;;;;;;;23.48;10.30;;;17.60;53.20;;;;;;4976372;28;20086;-64
2022/01/13 07:30:34;;;;;;;19.17;9.23;;;17.60;53.20;;;;;;4977236;28;20059;-68
2022/01/13 07:33:00;;;;;;;17.35;9.23;;;17.60;53.20;;;;;;4976818;28;20042;-67
2022/01/13 07:35:26;;;;;;;21.00;7.97;;;17.60;53.10;;;;;;4972157;28;20505;-65
2022/01/13 07:37:51;;;;;;;19.02;8.38;;;17.60;53.20;;;;;;4981318;28;20030;-67
2022/01/13 07:40:17;;;;;;;21.58;9.00;;;17.50;53.10;;;;;;4974677;28;20082;-65
2022/01/13 07:42:44;;;;;;;19.08;7.50;;;17.50;53.10;;;;;;4979534;28;20093;-65
2022/01/13 07:45:10;;;;;;;12.95;7.65;;;17.50;53.10;;;;;;4974445;28;20035;-67
2022/01/13 07:47:36;;;;;;;15.63;7.70;;;17.50;53.10;;;;;;4975723;28;20034;-67
2022/01/13 07:50:01;;;;;;;15.82;8.02;;;17.50;53.10;;;;;;4975169;28;20405;-63
2022/01/13 07:52:27;;;;;;;17.02;7.30;;;17.50;53.20;;;;;;4970377;28;20113;-66
2022/01/13 07:54:52;;;;;;;10.15;6.15;;;17.50;53.30;;;;;;4966376;28;20026;-65
2022/01/13 07:57:18;;;;;;;13.00;7.03;;;17.50;53.30;;;;;;4967127;28;20031;-68
2022/01/13 07:59:43;;;;;;;12.88;7.35;;;17.50;53.40;;;;;;4974086;28;20525;-68
2022/01/13 08:02:09;;;;;;;10.95;6.43;;;17.50;53.40;;;;;;4972337;28;20441;-65
2022/01/13 08:04:34;;;;;;;12.07;6.85;;;17.60;53.40;;;;;;4964994;28;20031;-65
2022/01/13 08:07:00;;;;;;;11.20;6.93;;;17.60;53.30;;;;;;4977483;28;20041;-68
2022/01/13 08:09:25;;;;;;;12.68;7.07;;;17.60;53.20;;;;;;4974451;28;20405;-63
2022/01/13 08:11:51;;;;;;;14.98;6.93;;;17.70;53.20;;;;;;4987296;28;20122;-63
2022/01/13 08:14:17;;;;;;;9.80;5.97;;;17.70;53.20;;;;;;4980083;28;20034;-67
2022/01/13 08:16:44;;;;;;;8.40;5.38;;;17.70;53.20;;;;;;4972151;28;20445;-67
2022/01/13 08:21:53;;;;;;;9.52;5.60;;;17.70;53.30;;;;;;4973997;28;20058;-68
2022/01/13 08:24:19;;;;;;;10.63;5.50;;;17.80;53.50;;;;;;4968573;28;20027;-68
2022/01/13 08:26:44;;;;;;;11.10;5.65;;;17.80;53.50;;;;;;4983268;28;20027;-67
2022/01/13 08:29:10;;;;;;;11.52;5.28;;;17.80;53.50;;;;;;4967663;28;20038;-67
2022/01/13 08:31:35;;;;;;;10.88;6.10;;;17.80;53.50;;;;;;4976004;28;20050;-68
2022/01/13 08:34:01;;;;;;;9.48;5.28;;;17.90;53.50;;;;;;4968401;28;20031;-68
2022/01/13 08:36:26;;;;;;;6.88;4.97;;;17.90;53.50;;;;;;4972085;28;20487;-69
2022/01/13 08:38:52;;;;;;;9.60;4.43;;;17.90;53.50;;;;;;4973249;28;20031;-69
2022/01/13 08:41:18;;;;;;;10.45;6.05;;;17.90;53.60;;;;;;4972417;28;20097;-68
2022/01/13 08:43:43;;;;;;;7.25;5.03;;;17.90;53.70;;;;;;4970758;28;20026;-69
2022/01/13 08:46:09;;;;;;;10.98;4.13;;;18.00;53.80;;;;;;4967994;28;20576;-71
2022/01/13 08:48:35;;;;;;;9.55;4.95;;;18.00;53.80;;;;;;4966485;28;20526;-66
2022/01/13 08:51:01;;;;;;;9.55;4.57;;;18.00;53.80;;;;;;4966853;28;20055;-70
2022/01/13 08:53:26;;;;;;;6.97;4.22;;;18.00;53.80;;;;;;4967213;28;20090;-64
2022/01/13 08:55:54;;;;;;;5.78;3.78;;;18.00;53.80;;;;;;4951475;28;20067;-70
2022/01/13 08:58:20;;;;;;;7.15;4.18;;;18.10;53.80;;;;;;4948279;28;20035;-70
2022/01/13 09:00:47;;;;;;;7.25;3.83;;;18.00;53.80;;;;;;4963145;28;20577;-67
2022/01/13 09:03:14;;;;;;;5.80;3.78;;;18.10;53.80;;;;;;4970042;28;20530;-66
2022/01/13 09:05:41;;;;;;;10.15;4.53;;;18.00;53.80;;;;;;4971620;28;20046;-70
2022/01/13 09:08:07;;;;;;;7.00;4.15;;;18.00;53.80;;;;;;4970283;28;20027;-66
2022/01/13 09:10:32;;;;;;;9.23;4.20;;;18.00;53.70;;;;;;4971941;28;20433;-69
2022/01/13 09:12:58;;;;;;;7.05;3.88;;;18.00;53.70;;;;;;4972380;28;20046;-67
2022/01/13 09:15:36;;;;;;;9.30;3.80;;;18.10;53.80;;;;;;4973558;28;20027;-70
2022/01/13 09:18:13;;;;;;;5.20;3.03;;;18.10;53.70;;;;;;4973230;28;20031;-64
2022/01/13 09:20:39;;;;;;;5.35;3.88;;;18.10;53.70;;;;;;4970521;28;20045;-66
2022/01/13 09:23:05;;;;;;;6.53;3.17;;;18.10;53.60;;;;;;4972112;28;20038;-69
2022/01/13 09:25:31;;;;;;;4.63;3.05;;;18.10;53.60;;;;;;4971353;28;20525;-70
2022/01/13 09:27:56;;;;;;;7.45;3.25;;;18.10;53.80;;;;;;4972072;28;20042;-71
2022/01/13 09:30:21;;;;;;;6.18;3.58;;;18.10;53.80;;;;;;4971097;28;20039;-70
2022/01/13 09:32:47;;;;;;;7.07;3.10;;;18.10;54.00;;;;;;4971107;28;20031;-71
2022/01/13 09:35:13;;;;;;;8.38;3.50;;;18.00;54.00;;;;;;4971750;28;20027;-69
2022/01/13 09:37:38;;;;;;;6.10;2.85;;;18.00;54.00;;;;;;4971940;28;20113;-70
2022/01/13 09:40:07;;;;;;;6.35;3.05;;;18.00;54.10;;;;;;4972218;28;20038;-69
2022/01/13 09:42:33;;;;;;;6.65;2.75;;;18.10;54.20;;;;;;4971474;28;20101;-69
2022/01/13 09:44:59;;;;;;;6.30;2.92;;;18.00;54.20;;;;;;4972342;28;20039;-69
2022/01/13 09:47:25;;;;;;;6.35;3.10;;;18.00;54.20;;;;;;4970492;28;20052;-70
2022/01/13 09:49:50;;;;;;;4.10;2.30;;;18.00;54.70;;;;;;4970333;28;20097;-70
2022/01/13 09:52:16;;;;;;;4.97;3.00;;;18.00;54.20;;;;;;4972855;28;20280;-69
2022/01/13 09:54:41;;;;;;;4.97;3.05;;;18.00;54.20;;;;;;4972230;28;20061;-68
2022/01/13 09:57:08;;;;;;;4.88;2.80;;;18.00;54.20;;;;;;4972162;28;20043;-70
2022/01/13 09:59:33;;;;;;;5.22;2.75;;;18.00;54.20;;;;;;4972352;28;20433;-69
2022/01/13 10:01:59;;;;;;;5.63;2.90;;;18.00;54.20;;;;;;4972174;28;20043;-65
2022/01/13 10:04:24;;;;;;;4.65;2.72;;;18.00;54.20;;;;;;4970197;28;20031;-67
2022/01/13 10:06:50;;;;;;;6.72;3.13;;;18.00;54.10;;;;;;4970514;28;20046;-71
2022/01/13 10:09:15;;;;;;;4.80;2.65;;;17.90;54.00;;;;;;4969336;28;20401;-69
2022/01/13 10:11:48;;;;;;;4.82;2.70;;;17.90;54.00;;;;;;4970396;28;20039;-70
2022/01/13 10:16:56;;;;;;;4.45;2.67;;;17.90;54.00;;;;;;4971206;28;20201;-70
2022/01/13 10:19:30;;;;;;;5.30;2.90;;;17.90;53.90;;;;;;4970597;28;20030;-69
2022/01/13 10:22:19;;;;;;;3.70;2.10;;;17.90;53.90;;;;;;4971804;28;20090;-69
2022/01/13 10:24:48;;;;;;;3.75;1.92;;;17.90;53.90;;;;;;4969252;28;20043;-69
2022/01/13 10:27:19;;;;;;;4.47;2.28;;;17.90;54.40;;;;;;4968982;28;20033;-69
2022/01/13 10:29:46;;;;;;;3.83;2.10;;;17.90;53.70;;;;;;4969550;28;20037;-69
2022/01/13 10:32:14;;;;;;;4.65;2.50;;;17.90;53.60;;;;;;4969577;28;20038;-69
2022/01/13 10:34:42;;;;;;;3.97;1.95;;;17.90;53.50;;;;;;4969365;28;20023;-69
2022/01/13 10:37:11;;;;;;;3.00;2.17;;;17.90;53.40;;;;;;4969188;28;20035;-69
2022/01/13 10:39:44;;;;;;;4.68;2.58;;;17.90;53.40;;;;;;4968603;28;20027;-69
2022/01/13 10:44:54;;;;;;;5.20;2.10;;;17.90;53.30;;;;;;4969060;28;20695;-69
2022/01/13 10:47:20;;;;;;;3.78;2.05;;;17.90;53.20;;;;;;4970464;28;20027;-69
2022/01/13 10:49:50;;;;;;;7.22;2.33;;;17.90;53.20;;;;;;4969113;28;20035;-71
2022/01/13 10:52:26;;;;;;;3.67;2.10;;;17.90;53.30;;;;;;4967857;28;20039;-70
2022/01/13 10:55:17;;;;;;;3.90;2.40;;;17.90;53.40;;;;;;4968934;28;20089;-71
2022/01/13 10:57:43;;;;;;;4.00;2.03;;;17.90;53.50;;;;;;4968915;28;20087;-68
2022/01/13 11:00:17;;;;;;;4.75;2.30;;;17.90;53.50;;;;;;4967396;28;20470;-70
2022/01/13 11:03:02;;;;;;;7.67;2.30;;;17.90;53.60;;;;;;4968306;28;20031;-70
2022/01/13 11:05:28;;;;;;;3.97;2.10;;;17.90;53.60;;;;;;4966729;28;20269;-69
2022/01/13 11:07:54;;;;;;;6.15;2.20;;;17.90;53.60;;;;;;4968013;28;20041;-69
2022/01/13 11:10:19;;;;;;;4.28;2.20;;;17.80;53.60;;;;;;4968080;28;20034;-70
2022/01/13 11:12:54;;;;;;;4.65;1.85;;;17.80;53.70;;;;;;4965994;28;20055;-69
2022/01/13 11:15:19;;;;;;;3.63;2.40;;;17.80;53.80;;;;;;4965029;28;20126;-72
2022/01/13 11:17:45;;;;;;;3.15;1.88;;;17.80;53.90;;;;;;4968526;28;20035;-70
2022/01/13 11:20:18;;;;;;;4.60;1.90;;;17.80;53.90;;;;;;4968234;28;20045;-70
2022/01/13 11:22:45;;;;;;;4.53;2.30;;;17.80;54.00;;;;;;4968410;28;20027;-70
2022/01/13 11:25:12;;;;;;;5.25;2.13;;;17.80;53.90;;;;;;4967258;28;20047;-70
2022/01/13 11:27:37;;;;;;;3.63;1.75;;;17.80;54.00;;;;;;4969183;28;20098;-69
2022/01/13 11:30:06;;;;;;;4.00;2.20;;;17.80;54.10;;;;;;4968374;28;20181;-69
2022/01/13 11:32:31;;;;;;;5.32;2.03;;;17.70;54.00;;;;;;4968751;28;20042;-68
2022/01/13 11:34:58;;;;;;;4.07;1.70;;;17.70;54.10;;;;;;4967881;28;20082;-68
2022/01/13 11:37:27;;;;;;;5.22;1.77;;;17.70;54.20;;;;;;4950353;28;20034;-70
2022/01/13 11:39:53;;;;;;;3.22;1.98;;;17.70;54.30;;;;;;4950290;28;20039;-71
2022/01/13 11:42:18;;;;;;;2.80;1.65;;;17.70;54.40;;;;;;4965861;28;20069;-69
2022/01/13 11:44:44;;;;;;;3.40;2.03;;;17.70;55.10;;;;;;4966495;28;20039;-70
2022/01/13 11:47:22;;;;;;;3.33;1.63;;;17.70;54.60;;;;;;4966793;28;20198;-69
2022/01/13 11:50:04;;;;;;;3.10;1.55;;;17.70;55.40;;;;;;4968131;28;20058;-69
2022/01/13 11:52:41;;;;;;;4.20;1.90;;;17.70;54.90;;;;;;4968931;28;20035;-67
2022/01/13 11:55:23;;;;;;;3.58;2.10;;;17.70;55.20;;;;;;4970601;28;20529;-67
2022/01/13 11:57:49;;;;;;;5.10;2.05;;;17.70;55.40;;;;;;4954877;28;20035;-68
2022/01/13 12:00:25;;;;;;;2.88;1.80;;;17.70;55.60;;;;;;4968007;28;20035;-69
2022/01/13 12:02:51;;;;;;;2.47;1.77;;;17.70;56.00;;;;;;4967680;28;20097;-66
2022/01/13 12:05:21;;;;;;;5.60;1.75;;;17.70;56.00;;;;;;4965307;28;20026;-69
2022/01/13 12:07:48;;;;;;;3.05;1.83;;;17.70;56.30;;;;;;4966838;28;20027;-68
2022/01/13 12:10:34;;;;;;;3.88;2.08;;;17.70;56.40;;;;;;4967951;28;20613;-65
2022/01/13 12:12:59;;;;;;;4.82;1.80;;;17.70;56.60;;;;;;4967593;28;20065;-67
2022/01/13 12:15:26;;;;;;;6.15;2.60;;;17.70;56.70;;;;;;4966561;28;20031;-66
2022/01/13 12:18:03;;;;;;;2.75;1.67;;;17.70;56.80;;;;;;4967781;28;20046;-67
2022/01/13 12:20:43;;;;;;;2.95;1.63;;;17.70;56.60;;;;;;4968156;28;20042;-67
2022/01/13 12:23:40;;;;;;;3.58;1.73;;;17.70;56.30;;;;;;4968181;28;20122;-66
2022/01/13 12:26:33;;;;;;;2.97;1.80;;;17.80;56.00;;;;;;4968070;28;20035;-66
2022/01/13 12:29:27;;;;;;;4.00;2.38;;;17.80;55.90;;;;;;4968636;28;20037;-66
2022/01/13 12:32:04;;;;;;;2.85;1.42;;;17.80;55.70;;;;;;4962941;28;20057;-63
2022/01/13 12:34:32;;;;;;;2.40;1.55;;;17.80;55.60;;;;;;4961554;28;20054;-65
2022/01/13 12:36:59;;;;;;;3.60;1.90;;;17.80;55.50;;;;;;4969856;28;20031;-65
2022/01/13 12:39:25;;;;;;;5.13;1.90;;;17.80;55.50;;;;;;4962246;28;20027;-62
2022/01/13 12:42:03;;;;;;;3.55;1.58;;;17.80;55.40;;;;;;4931855;28;20446;-63
2022/01/13 12:47:13;;;;;;;4.53;2.10;;;17.90;55.20;;;;;;4970341;28;20113;-68
2022/01/13 12:49:38;;;;;;;5.13;1.90;;;17.90;55.60;;;;;;4963117;28;20035;-67
2022/01/13 12:52:05;;;;;;;4.82;1.38;;;17.90;55.70;;;;;;4964948;28;20047;-65
2022/01/13 12:54:30;;;;;;;5.75;1.70;;;17.90;55.60;;;;;;4964919;28;20043;-66
2022/01/13 12:56:56;;;;;;;4.72;1.90;;;17.90;55.70;;;;;;4970883;28;20038;-68
2022/01/13 12:59:22;;;;;;;4.53;1.50;;;17.90;55.70;;;;;;4962782;28;20184;-68
2022/01/13 13:01:47;;;;;;;3.28;1.40;;;17.90;55.80;;;;;;4969905;28;20035;-63
2022/01/13 13:04:13;;;;;;;4.85;1.55;;;17.90;55.60;;;;;;4965246;28;20034;-68
2022/01/13 13:06:41;;;;;;;3.20;1.50;;;17.90;55.50;;;;;;4970588;28;20086;-63